sensor_id;sensor_type;location;lat;lon;timestamp;P1;durP1;ratioP1;P2;durP2;ratioP2
6013;SDS011;3035;49.928;8.410;2023-08-24T00:00:44;5.50;;;3.20;;
6013;SDS011;3035;49.928;8.410;2023-08-24T00:03:13;7.23;;;3.07;;
6013;SDS011;3035;49.928;8.410;2023-08-24T00:05:41;5.77;;;3.80;;
6013;SDS011;3035;49.928;8.410;2023-08-24T00:08:09;7.20;;;3.40;;
6013;SDS011;3035;49.928;8.410;2023-08-24T00:10:37;5.90;;;3.03;;
6013;SDS011;3035;49.928;8.410;2023-08-24T00:13:05;7.03;;;2.80;;
6013;SDS011;3035;49.928;8.410;2023-08-24T00:15:34;5.90;;;2.93;;
6013;SDS011;3035;49.928;8.410;2023-08-24T00:18:02;24.70;;;3.03;;
6013;SDS011;3035;49.928;8.410;2023-08-24T00:20:30;9.00;;;3.30;;
6013;SDS011;3035;49.928;8.410;2023-08-24T00:22:59;11.43;;;3.20;;
6013;SDS011;3035;49.928;8.410;2023-08-24T00:25:27;6.90;;;3.20;;
6013;SDS011;3035;49.928;8.410;2023-08-24T00:27:55;6.23;;;2.90;;
6013;SDS011;3035;49.928;8.410;2023-08-24T00:30:23;7.07;;;3.03;;
6013;SDS011;3035;49.928;8.410;2023-08-24T00:32:51;8.83;;;3.13;;
6013;SDS011;3035;49.928;8.410;2023-08-24T00:35:20;6.43;;;3.17;;
6013;SDS011;3035;49.928;8.410;2023-08-24T00:37:48;6.70;;;3.00;;
6013;SDS011;3035;49.928;8.410;2023-08-24T00:40:16;4.70;;;3.23;;
6013;SDS011;3035;49.928;8.410;2023-08-24T00:42:44;4.00;;;2.63;;
6013;SDS011;3035;49.928;8.410;2023-08-24T00:45:13;5.07;;;2.97;;
6013;SDS011;3035;49.928;8.410;2023-08-24T00:47:44;4.23;;;2.80;;
6013;SDS011;3035;49.928;8.410;2023-08-24T00:50:11;12.43;;;3.37;;
6013;SDS011;3035;49.928;8.410;2023-08-24T00:52:40;11.17;;;2.97;;
6013;SDS011;3035;49.928;8.410;2023-08-24T00:55:07;4.53;;;3.10;;
6013;SDS011;3035;49.928;8.410;2023-08-24T00:57:36;7.23;;;3.30;;
6013;SDS011;3035;49.928;8.410;2023-08-24T01:00:05;7.90;;;2.97;;
6013;SDS011;3035;49.928;8.410;2023-08-24T01:02:33;5.50;;;3.10;;
6013;SDS011;3035;49.928;8.410;2023-08-24T01:05:01;6.00;;;3.33;;
6013;SDS011;3035;49.928;8.410;2023-08-24T01:07:29;5.30;;;2.87;;
6013;SDS011;3035;49.928;8.410;2023-08-24T01:09:58;4.60;;;3.27;;
6013;SDS011;3035;49.928;8.410;2023-08-24T01:12:28;9.13;;;3.17;;
6013;SDS011;3035;49.928;8.410;2023-08-24T01:15:16;5.73;;;2.97;;
6013;SDS011;3035;49.928;8.410;2023-08-24T01:17:53;8.70;;;2.80;;
6013;SDS011;3035;49.928;8.410;2023-08-24T01:20:21;10.03;;;3.00;;
6013;SDS011;3035;49.928;8.410;2023-08-24T01:26:05;6.53;;;3.80;;
6013;SDS011;3035;49.928;8.410;2023-08-24T01:28:36;7.83;;;3.43;;
6013;SDS011;3035;49.928;8.410;2023-08-24T01:31:04;8.70;;;2.80;;
6013;SDS011;3035;49.928;8.410;2023-08-24T01:33:32;5.00;;;2.87;;
6013;SDS011;3035;49.928;8.410;2023-08-24T01:36:00;6.80;;;3.07;;
6013;SDS011;3035;49.928;8.410;2023-08-24T01:38:28;4.27;;;2.57;;
6013;SDS011;3035;49.928;8.410;2023-08-24T01:40:59;8.30;;;2.80;;
6013;SDS011;3035;49.928;8.410;2023-08-24T01:43:34;8.47;;;3.60;;
6013;SDS011;3035;49.928;8.410;2023-08-24T01:46:03;8.30;;;3.53;;
6013;SDS011;3035;49.928;8.410;2023-08-24T01:48:31;4.50;;;2.77;;
6013;SDS011;3035;49.928;8.410;2023-08-24T01:50:59;11.20;;;2.83;;
6013;SDS011;3035;49.928;8.410;2023-08-24T01:53:27;6.93;;;3.37;;
6013;SDS011;3035;49.928;8.410;2023-08-24T01:55:55;3.10;;;2.43;;
6013;SDS011;3035;49.928;8.410;2023-08-24T01:58:23;11.33;;;2.80;;
6013;SDS011;3035;49.928;8.410;2023-08-24T02:00:51;7.43;;;3.13;;
6013;SDS011;3035;49.928;8.410;2023-08-24T02:03:20;7.70;;;3.40;;
6013;SDS011;3035;49.928;8.410;2023-08-24T02:05:48;11.13;;;3.70;;
6013;SDS011;3035;49.928;8.410;2023-08-24T02:08:16;7.13;;;3.40;;
6013;SDS011;3035;49.928;8.410;2023-08-24T02:10:44;7.77;;;3.03;;
6013;SDS011;3035;49.928;8.410;2023-08-24T02:13:12;4.83;;;3.10;;
6013;SDS011;3035;49.928;8.410;2023-08-24T02:15:41;4.07;;;2.63;;
6013;SDS011;3035;49.928;8.410;2023-08-24T02:18:09;6.13;;;2.30;;
6013;SDS011;3035;49.928;8.410;2023-08-24T02:20:37;7.77;;;3.00;;
6013;SDS011;3035;49.928;8.410;2023-08-24T02:23:05;7.97;;;2.70;;
6013;SDS011;3035;49.928;8.410;2023-08-24T02:25:33;5.23;;;3.27;;
6013;SDS011;3035;49.928;8.410;2023-08-24T02:28:02;13.63;;;2.83;;
6013;SDS011;3035;49.928;8.410;2023-08-24T02:30:30;3.80;;;2.60;;
6013;SDS011;3035;49.928;8.410;2023-08-24T02:32:58;4.07;;;2.30;;
6013;SDS011;3035;49.928;8.410;2023-08-24T02:35:27;5.50;;;3.00;;
6013;SDS011;3035;49.928;8.410;2023-08-24T02:37:55;9.13;;;3.33;;
6013;SDS011;3035;49.928;8.410;2023-08-24T02:40:23;4.83;;;2.97;;
6013;SDS011;3035;49.928;8.410;2023-08-24T02:42:51;5.10;;;3.03;;
6013;SDS011;3035;49.928;8.410;2023-08-24T02:45:19;11.60;;;3.20;;
6013;SDS011;3035;49.928;8.410;2023-08-24T02:47:48;6.33;;;2.93;;
6013;SDS011;3035;49.928;8.410;2023-08-24T02:50:16;11.73;;;3.60;;
6013;SDS011;3035;49.928;8.410;2023-08-24T02:52:44;10.00;;;4.60;;
6013;SDS011;3035;49.928;8.410;2023-08-24T02:55:12;8.33;;;3.60;;
6013;SDS011;3035;49.928;8.410;2023-08-24T02:57:40;7.87;;;3.37;;
6013;SDS011;3035;49.928;8.410;2023-08-24T03:00:09;5.27;;;3.20;;
6013;SDS011;3035;49.928;8.410;2023-08-24T03:02:40;6.23;;;3.50;;
6013;SDS011;3035;49.928;8.410;2023-08-24T03:05:09;11.30;;;4.47;;
6013;SDS011;3035;49.928;8.410;2023-08-24T03:07:38;8.13;;;4.00;;
6013;SDS011;3035;49.928;8.410;2023-08-24T03:10:07;9.53;;;3.90;;
6013;SDS011;3035;49.928;8.410;2023-08-24T03:12:35;7.90;;;4.17;;
6013;SDS011;3035;49.928;8.410;2023-08-24T03:15:04;8.10;;;3.93;;
6013;SDS011;3035;49.928;8.410;2023-08-24T03:17:32;7.27;;;3.97;;
6013;SDS011;3035;49.928;8.410;2023-08-24T03:20:01;14.93;;;5.40;;
6013;SDS011;3035;49.928;8.410;2023-08-24T03:22:29;13.70;;;5.03;;
6013;SDS011;3035;49.928;8.410;2023-08-24T03:24:57;12.03;;;4.80;;
6013;SDS011;3035;49.928;8.410;2023-08-24T03:27:25;11.23;;;4.90;;
6013;SDS011;3035;49.928;8.410;2023-08-24T03:29:53;9.80;;;5.10;;
6013;SDS011;3035;49.928;8.410;2023-08-24T03:32:22;8.40;;;4.93;;
6013;SDS011;3035;49.928;8.410;2023-08-24T03:34:50;7.27;;;5.97;;
6013;SDS011;3035;49.928;8.410;2023-08-24T03:37:18;11.40;;;5.70;;
6013;SDS011;3035;49.928;8.410;2023-08-24T03:39:46;11.43;;;5.50;;
6013;SDS011;3035;49.928;8.410;2023-08-24T03:42:15;13.33;;;6.03;;
6013;SDS011;3035;49.928;8.410;2023-08-24T03:44:43;12.93;;;6.43;;
6013;SDS011;3035;49.928;8.410;2023-08-24T03:47:11;9.87;;;5.27;;
6013;SDS011;3035;49.928;8.410;2023-08-24T03:49:41;10.63;;;5.90;;
6013;SDS011;3035;49.928;8.410;2023-08-24T03:52:10;11.40;;;6.60;;
6013;SDS011;3035;49.928;8.410;2023-08-24T03:54:38;9.27;;;5.67;;
6013;SDS011;3035;49.928;8.410;2023-08-24T03:57:06;7.93;;;6.60;;
6013;SDS011;3035;49.928;8.410;2023-08-24T03:59:34;8.23;;;6.40;;
6013;SDS011;3035;49.928;8.410;2023-08-24T04:02:03;16.70;;;6.80;;
6013;SDS011;3035;49.928;8.410;2023-08-24T04:04:31;10.93;;;6.43;;
6013;SDS011;3035;49.928;8.410;2023-08-24T04:06:59;9.77;;;6.23;;
6013;SDS011;3035;49.928;8.410;2023-08-24T04:09:27;9.80;;;6.70;;
6013;SDS011;3035;49.928;8.410;2023-08-24T04:11:56;9.10;;;6.20;;
6013;SDS011;3035;49.928;8.410;2023-08-24T04:14:24;17.87;;;7.37;;
6013;SDS011;3035;49.928;8.410;2023-08-24T04:16:52;8.10;;;5.50;;
6013;SDS011;3035;49.928;8.410;2023-08-24T04:19:20;11.60;;;7.53;;
6013;SDS011;3035;49.928;8.410;2023-08-24T04:21:48;8.90;;;6.10;;
6013;SDS011;3035;49.928;8.410;2023-08-24T04:24:17;8.00;;;6.70;;
6013;SDS011;3035;49.928;8.410;2023-08-24T04:26:45;8.87;;;6.40;;
6013;SDS011;3035;49.928;8.410;2023-08-24T04:29:13;8.50;;;5.97;;
6013;SDS011;3035;49.928;8.410;2023-08-24T04:31:41;7.90;;;6.17;;
6013;SDS011;3035;49.928;8.410;2023-08-24T04:34:09;10.30;;;6.47;;
6013;SDS011;3035;49.928;8.410;2023-08-24T04:36:38;11.47;;;5.83;;
6013;SDS011;3035;49.928;8.410;2023-08-24T04:39:06;6.77;;;5.50;;
6013;SDS011;3035;49.928;8.410;2023-08-24T04:41:34;8.00;;;6.77;;
6013;SDS011;3035;49.928;8.410;2023-08-24T04:44:02;9.63;;;6.57;;
6013;SDS011;3035;49.928;8.410;2023-08-24T04:46:30;9.83;;;5.43;;
6013;SDS011;3035;49.928;8.410;2023-08-24T04:48:59;10.17;;;5.57;;
6013;SDS011;3035;49.928;8.410;2023-08-24T04:51:27;6.43;;;5.03;;
6013;SDS011;3035;49.928;8.410;2023-08-24T04:53:55;8.33;;;5.60;;
6013;SDS011;3035;49.928;8.410;2023-08-24T04:56:23;10.53;;;5.97;;
6013;SDS011;3035;49.928;8.410;2023-08-24T04:58:52;7.83;;;5.30;;
6013;SDS011;3035;49.928;8.410;2023-08-24T05:01:23;8.37;;;5.43;;
6013;SDS011;3035;49.928;8.410;2023-08-24T05:03:51;6.83;;;4.93;;
6013;SDS011;3035;49.928;8.410;2023-08-24T05:06:19;12.37;;;5.03;;
6013;SDS011;3035;49.928;8.410;2023-08-24T05:08:47;8.47;;;5.80;;
6013;SDS011;3035;49.928;8.410;2023-08-24T05:11:17;13.43;;;5.50;;
6013;SDS011;3035;49.928;8.410;2023-08-24T05:13:45;9.47;;;6.13;;
6013;SDS011;3035;49.928;8.410;2023-08-24T05:16:13;11.77;;;5.40;;
6013;SDS011;3035;49.928;8.410;2023-08-24T05:18:41;6.40;;;4.87;;
6013;SDS011;3035;49.928;8.410;2023-08-24T05:21:09;5.80;;;4.40;;
6013;SDS011;3035;49.928;8.410;2023-08-24T05:23:37;6.40;;;4.83;;
6013;SDS011;3035;49.928;8.410;2023-08-24T05:26:06;9.03;;;4.27;;
6013;SDS011;3035;49.928;8.410;2023-08-24T05:28:34;7.67;;;4.00;;
6013;SDS011;3035;49.928;8.410;2023-08-24T05:31:02;8.50;;;4.87;;
6013;SDS011;3035;49.928;8.410;2023-08-24T05:33:30;5.17;;;3.73;;
6013;SDS011;3035;49.928;8.410;2023-08-24T05:35:58;14.53;;;4.20;;
6013;SDS011;3035;49.928;8.410;2023-08-24T05:38:27;9.43;;;3.90;;
6013;SDS011;3035;49.928;8.410;2023-08-24T05:40:55;7.40;;;3.70;;
6013;SDS011;3035;49.928;8.410;2023-08-24T05:43:23;12.63;;;4.00;;
6013;SDS011;3035;49.928;8.410;2023-08-24T05:45:51;9.60;;;4.00;;
6013;SDS011;3035;49.928;8.410;2023-08-24T05:48:19;9.27;;;3.70;;
6013;SDS011;3035;49.928;8.410;2023-08-24T05:50:48;7.33;;;3.50;;
6013;SDS011;3035;49.928;8.410;2023-08-24T05:53:16;4.40;;;3.23;;
6013;SDS011;3035;49.928;8.410;2023-08-24T05:55:44;11.60;;;3.70;;
6013;SDS011;3035;49.928;8.410;2023-08-24T05:58:12;8.63;;;3.57;;
6013;SDS011;3035;49.928;8.410;2023-08-24T06:00:41;10.50;;;3.47;;
6013;SDS011;3035;49.928;8.410;2023-08-24T06:03:09;5.20;;;3.10;;
6013;SDS011;3035;49.928;8.410;2023-08-24T06:05:37;5.70;;;2.77;;
6013;SDS011;3035;49.928;8.410;2023-08-24T06:08:05;5.70;;;3.70;;
6013;SDS011;3035;49.928;8.410;2023-08-24T06:10:33;8.63;;;3.60;;
6013;SDS011;3035;49.928;8.410;2023-08-24T06:13:02;5.87;;;3.43;;
6013;SDS011;3035;49.928;8.410;2023-08-24T06:15:30;9.03;;;3.50;;
6013;SDS011;3035;49.928;8.410;2023-08-24T06:17:58;5.13;;;3.10;;
6013;SDS011;3035;49.928;8.410;2023-08-24T06:20:26;6.43;;;3.57;;
6013;SDS011;3035;49.928;8.410;2023-08-24T06:22:54;4.47;;;3.13;;
6013;SDS011;3035;49.928;8.410;2023-08-24T06:25:23;9.50;;;3.30;;
6013;SDS011;3035;49.928;8.410;2023-08-24T06:27:51;11.33;;;3.80;;
6013;SDS011;3035;49.928;8.410;2023-08-24T06:30:19;12.40;;;3.23;;
6013;SDS011;3035;49.928;8.410;2023-08-24T06:32:47;6.20;;;3.10;;
6013;SDS011;3035;49.928;8.410;2023-08-24T06:35:15;9.33;;;3.80;;
6013;SDS011;3035;49.928;8.410;2023-08-24T06:37:44;6.80;;;3.37;;
6013;SDS011;3035;49.928;8.410;2023-08-24T06:40:12;7.50;;;3.90;;
6013;SDS011;3035;49.928;8.410;2023-08-24T06:42:40;6.77;;;4.13;;
6013;SDS011;3035;49.928;8.410;2023-08-24T06:45:08;5.47;;;2.80;;
6013;SDS011;3035;49.928;8.410;2023-08-24T06:47:37;4.83;;;3.27;;
6013;SDS011;3035;49.928;8.410;2023-08-24T06:50:05;6.33;;;3.60;;
6013;SDS011;3035;49.928;8.410;2023-08-24T06:52:34;4.50;;;3.40;;
6013;SDS011;3035;49.928;8.410;2023-08-24T06:55:02;8.67;;;3.50;;
6013;SDS011;3035;49.928;8.410;2023-08-24T06:57:30;10.70;;;4.70;;
6013;SDS011;3035;49.928;8.410;2023-08-24T06:59:58;21.13;;;4.10;;
6013;SDS011;3035;49.928;8.410;2023-08-24T07:02:27;11.27;;;4.40;;
6013;SDS011;3035;49.928;8.410;2023-08-24T07:04:55;10.17;;;4.13;;
6013;SDS011;3035;49.928;8.410;2023-08-24T07:07:23;12.30;;;3.43;;
6013;SDS011;3035;49.928;8.410;2023-08-24T07:09:51;4.67;;;3.10;;
6013;SDS011;3035;49.928;8.410;2023-08-24T07:12:19;8.03;;;3.97;;
6013;SDS011;3035;49.928;8.410;2023-08-24T07:14:48;8.90;;;4.10;;
6013;SDS011;3035;49.928;8.410;2023-08-24T07:17:16;10.77;;;4.37;;
6013;SDS011;3035;49.928;8.410;2023-08-24T07:19:44;7.30;;;4.40;;
6013;SDS011;3035;49.928;8.410;2023-08-24T07:22:13;7.07;;;3.87;;
6013;SDS011;3035;49.928;8.410;2023-08-24T07:24:41;6.20;;;3.30;;
6013;SDS011;3035;49.928;8.410;2023-08-24T07:27:09;6.27;;;3.67;;
6013;SDS011;3035;49.928;8.410;2023-08-24T07:29:37;4.87;;;3.63;;
6013;SDS011;3035;49.928;8.410;2023-08-24T07:32:05;8.83;;;3.90;;
6013;SDS011;3035;49.928;8.410;2023-08-24T07:34:33;5.67;;;3.50;;
6013;SDS011;3035;49.928;8.410;2023-08-24T07:37:02;5.07;;;3.60;;
6013;SDS011;3035;49.928;8.410;2023-08-24T07:39:30;5.87;;;3.63;;
6013;SDS011;3035;49.928;8.410;2023-08-24T07:41:58;5.30;;;3.40;;
6013;SDS011;3035;49.928;8.410;2023-08-24T07:44:26;5.03;;;3.00;;
6013;SDS011;3035;49.928;8.410;2023-08-24T07:46:54;4.90;;;3.50;;
6013;SDS011;3035;49.928;8.410;2023-08-24T07:49:23;10.07;;;3.50;;
6013;SDS011;3035;49.928;8.410;2023-08-24T07:51:51;5.50;;;3.90;;
6013;SDS011;3035;49.928;8.410;2023-08-24T07:54:19;10.83;;;5.63;;
6013;SDS011;3035;49.928;8.410;2023-08-24T07:56:47;7.87;;;4.27;;
6013;SDS011;3035;49.928;8.410;2023-08-24T07:59:15;6.93;;;3.10;;
6013;SDS011;3035;49.928;8.410;2023-08-24T08:01:44;6.60;;;3.10;;
6013;SDS011;3035;49.928;8.410;2023-08-24T08:04:12;6.77;;;3.90;;
6013;SDS011;3035;49.928;8.410;2023-08-24T08:06:40;5.50;;;3.83;;
6013;SDS011;3035;49.928;8.410;2023-08-24T08:09:08;7.33;;;3.20;;
6013;SDS011;3035;49.928;8.410;2023-08-24T08:11:36;5.40;;;3.40;;
6013;SDS011;3035;49.928;8.410;2023-08-24T08:14:05;5.60;;;3.90;;
6013;SDS011;3035;49.928;8.410;2023-08-24T08:16:33;7.10;;;3.30;;
6013;SDS011;3035;49.928;8.410;2023-08-24T08:19:01;6.10;;;3.73;;
6013;SDS011;3035;49.928;8.410;2023-08-24T08:21:29;6.60;;;3.67;;
6013;SDS011;3035;49.928;8.410;2023-08-24T08:23:57;5.20;;;3.23;;
6013;SDS011;3035;49.928;8.410;2023-08-24T08:26:26;4.90;;;3.27;;
6013;SDS011;3035;49.928;8.410;2023-08-24T08:28:54;5.27;;;3.50;;
6013;SDS011;3035;49.928;8.410;2023-08-24T08:31:22;7.73;;;3.10;;
6013;SDS011;3035;49.928;8.410;2023-08-24T08:33:50;6.03;;;3.70;;
6013;SDS011;3035;49.928;8.410;2023-08-24T08:36:18;7.97;;;3.47;;
6013;SDS011;3035;49.928;8.410;2023-08-24T08:38:47;5.43;;;3.67;;
6013;SDS011;3035;49.928;8.410;2023-08-24T08:41:15;7.30;;;3.40;;
6013;SDS011;3035;49.928;8.410;2023-08-24T08:43:43;5.70;;;3.27;;
6013;SDS011;3035;49.928;8.410;2023-08-24T08:46:11;5.23;;;3.33;;
6013;SDS011;3035;49.928;8.410;2023-08-24T08:48:40;5.90;;;2.97;;
6013;SDS011;3035;49.928;8.410;2023-08-24T08:51:08;7.13;;;4.03;;
6013;SDS011;3035;49.928;8.410;2023-08-24T08:53:36;4.00;;;2.77;;
6013;SDS011;3035;49.928;8.410;2023-08-24T08:56:05;5.70;;;3.40;;
6013;SDS011;3035;49.928;8.410;2023-08-24T08:58:33;6.60;;;2.87;;
6013;SDS011;3035;49.928;8.410;2023-08-24T09:01:03;9.70;;;3.27;;
6013;SDS011;3035;49.928;8.410;2023-08-24T09:03:31;7.27;;;3.30;;
6013;SDS011;3035;49.928;8.410;2023-08-24T09:06:00;7.23;;;3.00;;
6013;SDS011;3035;49.928;8.410;2023-08-24T09:08:28;4.33;;;2.97;;
6013;SDS011;3035;49.928;8.410;2023-08-24T09:10:58;7.83;;;3.30;;
6013;SDS011;3035;49.928;8.410;2023-08-24T09:13:26;4.90;;;3.43;;
6013;SDS011;3035;49.928;8.410;2023-08-24T09:15:55;7.17;;;2.93;;
6013;SDS011;3035;49.928;8.410;2023-08-24T09:18:22;6.50;;;3.00;;
6013;SDS011;3035;49.928;8.410;2023-08-24T09:20:51;6.73;;;3.83;;
6013;SDS011;3035;49.928;8.410;2023-08-24T09:23:19;4.43;;;3.00;;
6013;SDS011;3035;49.928;8.410;2023-08-24T09:25:47;6.90;;;3.10;;
6013;SDS011;3035;49.928;8.410;2023-08-24T09:28:21;14.03;;;3.07;;
6013;SDS011;3035;49.928;8.410;2023-08-24T09:30:44;6.30;;;3.27;;
6013;SDS011;3035;49.928;8.410;2023-08-24T09:33:12;6.23;;;3.00;;
6013;SDS011;3035;49.928;8.410;2023-08-24T09:35:41;5.03;;;2.80;;
6013;SDS011;3035;49.928;8.410;2023-08-24T09:40:45;6.37;;;2.70;;
6013;SDS011;3035;49.928;8.410;2023-08-24T09:43:14;5.70;;;3.20;;
6013;SDS011;3035;49.928;8.410;2023-08-24T09:45:48;5.80;;;2.70;;
6013;SDS011;3035;49.928;8.410;2023-08-24T09:48:24;7.57;;;3.10;;
6013;SDS011;3035;49.928;8.410;2023-08-24T09:50:53;4.97;;;2.63;;
6013;SDS011;3035;49.928;8.410;2023-08-24T09:53:22;8.40;;;2.70;;
6013;SDS011;3035;49.928;8.410;2023-08-24T09:56:00;2.83;;;2.40;;
6013;SDS011;3035;49.928;8.410;2023-08-24T09:58:29;8.60;;;2.93;;
6013;SDS011;3035;49.928;8.410;2023-08-24T10:00:57;5.77;;;2.80;;
6013;SDS011;3035;49.928;8.410;2023-08-24T10:03:27;5.03;;;2.80;;
6013;SDS011;3035;49.928;8.410;2023-08-24T10:05:56;3.87;;;2.50;;
6013;SDS011;3035;49.928;8.410;2023-08-24T10:08:26;4.07;;;2.90;;
6013;SDS011;3035;49.928;8.410;2023-08-24T10:10:55;3.37;;;2.20;;
6013;SDS011;3035;49.928;8.410;2023-08-24T10:13:25;3.20;;;2.63;;
6013;SDS011;3035;49.928;8.410;2023-08-24T10:16:12;3.67;;;2.60;;
6013;SDS011;3035;49.928;8.410;2023-08-24T10:18:40;3.30;;;2.40;;
6013;SDS011;3035;49.928;8.410;2023-08-24T10:21:09;8.53;;;2.70;;
6013;SDS011;3035;49.928;8.410;2023-08-24T10:23:37;6.70;;;2.60;;
6013;SDS011;3035;49.928;8.410;2023-08-24T10:26:06;5.00;;;2.50;;
6013;SDS011;3035;49.928;8.410;2023-08-24T10:28:34;3.07;;;2.33;;
6013;SDS011;3035;49.928;8.410;2023-08-24T10:31:03;5.80;;;2.90;;
6013;SDS011;3035;49.928;8.410;2023-08-24T10:33:33;6.03;;;2.60;;
6013;SDS011;3035;49.928;8.410;2023-08-24T10:36:03;5.27;;;2.30;;
6013;SDS011;3035;49.928;8.410;2023-08-24T10:38:29;7.80;;;3.43;;
6013;SDS011;3035;49.928;8.410;2023-08-24T10:41:02;5.10;;;2.53;;
6013;SDS011;3035;49.928;8.410;2023-08-24T10:43:37;7.53;;;3.57;;
6013;SDS011;3035;49.928;8.410;2023-08-24T10:46:11;7.00;;;2.73;;
6013;SDS011;3035;49.928;8.410;2023-08-24T10:51:26;7.10;;;2.70;;
6013;SDS011;3035;49.928;8.410;2023-08-24T10:53:56;11.70;;;3.40;;
6013;SDS011;3035;49.928;8.410;2023-08-24T10:56:30;4.80;;;2.97;;
6013;SDS011;3035;49.928;8.410;2023-08-24T11:01:41;9.80;;;2.80;;
6013;SDS011;3035;49.928;8.410;2023-08-24T11:04:10;14.07;;;3.10;;
6013;SDS011;3035;49.928;8.410;2023-08-24T11:06:50;8.43;;;2.70;;
6013;SDS011;3035;49.928;8.410;2023-08-24T11:09:18;4.13;;;2.97;;
6013;SDS011;3035;49.928;8.410;2023-08-24T11:14:24;4.43;;;2.60;;
6013;SDS011;3035;49.928;8.410;2023-08-24T11:16:53;2.33;;;2.10;;
6013;SDS011;3035;49.928;8.410;2023-08-24T11:19:21;6.20;;;2.67;;
6013;SDS011;3035;49.928;8.410;2023-08-24T11:21:50;7.10;;;2.70;;
6013;SDS011;3035;49.928;8.410;2023-08-24T11:24:17;10.70;;;2.97;;
6013;SDS011;3035;49.928;8.410;2023-08-24T11:26:46;4.50;;;2.43;;
6013;SDS011;3035;49.928;8.410;2023-08-24T11:29:14;4.03;;;2.63;;
6013;SDS011;3035;49.928;8.410;2023-08-24T11:31:43;8.73;;;2.80;;
6013;SDS011;3035;49.928;8.410;2023-08-24T11:34:14;3.00;;;2.30;;
6013;SDS011;3035;49.928;8.410;2023-08-24T11:36:42;5.77;;;2.60;;
6013;SDS011;3035;49.928;8.410;2023-08-24T11:39:16;4.10;;;2.77;;
6013;SDS011;3035;49.928;8.410;2023-08-24T11:41:44;4.70;;;2.80;;
6013;SDS011;3035;49.928;8.410;2023-08-24T11:44:27;3.20;;;2.53;;
6013;SDS011;3035;49.928;8.410;2023-08-24T11:46:56;3.40;;;3.00;;
6013;SDS011;3035;49.928;8.410;2023-08-24T11:49:23;9.83;;;2.70;;
6013;SDS011;3035;49.928;8.410;2023-08-24T11:51:51;3.30;;;2.60;;
6013;SDS011;3035;49.928;8.410;2023-08-24T11:54:20;3.00;;;2.40;;
6013;SDS011;3035;49.928;8.410;2023-08-24T11:56:48;9.30;;;2.80;;
6013;SDS011;3035;49.928;8.410;2023-08-24T11:59:17;4.80;;;2.60;;
6013;SDS011;3035;49.928;8.410;2023-08-24T12:01:45;4.17;;;2.67;;
6013;SDS011;3035;49.928;8.410;2023-08-24T12:04:13;4.10;;;2.87;;
6013;SDS011;3035;49.928;8.410;2023-08-24T12:06:41;4.10;;;2.93;;
6013;SDS011;3035;49.928;8.410;2023-08-24T12:09:10;5.10;;;2.70;;
6013;SDS011;3035;49.928;8.410;2023-08-24T12:11:38;8.30;;;3.50;;
6013;SDS011;3035;49.928;8.410;2023-08-24T12:14:06;3.93;;;2.90;;
6013;SDS011;3035;49.928;8.410;2023-08-24T12:16:34;4.60;;;3.07;;
6013;SDS011;3035;49.928;8.410;2023-08-24T12:19:06;3.60;;;2.70;;
6013;SDS011;3035;49.928;8.410;2023-08-24T12:21:31;4.97;;;2.67;;
6013;SDS011;3035;49.928;8.410;2023-08-24T12:23:59;11.67;;;2.23;;
6013;SDS011;3035;49.928;8.410;2023-08-24T12:26:29;4.50;;;2.90;;
6013;SDS011;3035;49.928;8.410;2023-08-24T12:29:00;4.50;;;2.80;;
6013;SDS011;3035;49.928;8.410;2023-08-24T12:31:27;3.30;;;2.80;;
6013;SDS011;3035;49.928;8.410;2023-08-24T12:33:59;4.30;;;2.40;;
6013;SDS011;3035;49.928;8.410;2023-08-24T12:36:27;10.60;;;2.47;;
6013;SDS011;3035;49.928;8.410;2023-08-24T12:38:54;3.87;;;2.50;;
6013;SDS011;3035;49.928;8.410;2023-08-24T12:41:23;4.80;;;2.80;;
6013;SDS011;3035;49.928;8.410;2023-08-24T12:43:51;2.73;;;2.27;;
6013;SDS011;3035;49.928;8.410;2023-08-24T12:46:19;4.30;;;2.50;;
6013;SDS011;3035;49.928;8.410;2023-08-24T12:48:47;4.80;;;2.57;;
6013;SDS011;3035;49.928;8.410;2023-08-24T12:51:16;4.30;;;2.93;;
6013;SDS011;3035;49.928;8.410;2023-08-24T12:53:44;4.50;;;2.27;;
6013;SDS011;3035;49.928;8.410;2023-08-24T12:56:13;3.47;;;2.50;;
6013;SDS011;3035;49.928;8.410;2023-08-24T12:58:41;4.60;;;2.57;;
6013;SDS011;3035;49.928;8.410;2023-08-24T13:01:10;5.03;;;2.77;;
6013;SDS011;3035;49.928;8.410;2023-08-24T13:03:38;7.03;;;2.53;;
6013;SDS011;3035;49.928;8.410;2023-08-24T13:06:07;7.27;;;2.77;;
6013;SDS011;3035;49.928;8.410;2023-08-24T13:08:35;3.37;;;2.53;;
6013;SDS011;3035;49.928;8.410;2023-08-24T13:11:03;5.23;;;2.23;;
6013;SDS011;3035;49.928;8.410;2023-08-24T13:13:32;3.90;;;2.70;;
6013;SDS011;3035;49.928;8.410;2023-08-24T13:16:01;7.00;;;2.43;;
6013;SDS011;3035;49.928;8.410;2023-08-24T13:18:30;3.83;;;2.30;;
6013;SDS011;3035;49.928;8.410;2023-08-24T13:20:58;11.80;;;2.50;;
6013;SDS011;3035;49.928;8.410;2023-08-24T13:23:26;3.40;;;2.67;;
6013;SDS011;3035;49.928;8.410;2023-08-24T13:25:57;4.03;;;2.70;;
6013;SDS011;3035;49.928;8.410;2023-08-24T13:28:28;8.37;;;2.93;;
6013;SDS011;3035;49.928;8.410;2023-08-24T13:30:56;3.70;;;2.30;;
6013;SDS011;3035;49.928;8.410;2023-08-24T13:33:25;4.30;;;2.20;;
6013;SDS011;3035;49.928;8.410;2023-08-24T13:35:54;5.37;;;2.33;;
6013;SDS011;3035;49.928;8.410;2023-08-24T13:38:22;3.50;;;2.23;;
6013;SDS011;3035;49.928;8.410;2023-08-24T13:40:50;7.27;;;2.27;;
6013;SDS011;3035;49.928;8.410;2023-08-24T13:43:18;3.73;;;2.60;;
6013;SDS011;3035;49.928;8.410;2023-08-24T13:45:46;4.77;;;2.53;;
6013;SDS011;3035;49.928;8.410;2023-08-24T13:48:15;2.40;;;2.20;;
6013;SDS011;3035;49.928;8.410;2023-08-24T13:50:49;5.90;;;3.17;;
6013;SDS011;3035;49.928;8.410;2023-08-24T13:53:19;7.70;;;3.10;;
6013;SDS011;3035;49.928;8.410;2023-08-24T13:55:48;6.63;;;2.70;;
6013;SDS011;3035;49.928;8.410;2023-08-24T13:58:17;4.70;;;2.83;;
6013;SDS011;3035;49.928;8.410;2023-08-24T14:00:46;2.33;;;2.00;;
6013;SDS011;3035;49.928;8.410;2023-08-24T14:03:14;6.30;;;2.60;;
6013;SDS011;3035;49.928;8.410;2023-08-24T14:05:42;3.33;;;2.83;;
6013;SDS011;3035;49.928;8.410;2023-08-24T14:08:10;9.37;;;3.23;;
6013;SDS011;3035;49.928;8.410;2023-08-24T14:10:38;3.67;;;2.67;;
6013;SDS011;3035;49.928;8.410;2023-08-24T14:13:07;7.60;;;2.33;;
6013;SDS011;3035;49.928;8.410;2023-08-24T14:15:35;5.60;;;3.33;;
6013;SDS011;3035;49.928;8.410;2023-08-24T14:18:03;3.03;;;1.90;;
6013;SDS011;3035;49.928;8.410;2023-08-24T14:20:31;5.03;;;2.23;;
6013;SDS011;3035;49.928;8.410;2023-08-24T14:23:00;6.00;;;2.63;;
6013;SDS011;3035;49.928;8.410;2023-08-24T14:25:28;5.17;;;2.93;;
6013;SDS011;3035;49.928;8.410;2023-08-24T14:27:56;7.70;;;3.20;;
6013;SDS011;3035;49.928;8.410;2023-08-24T14:30:24;5.37;;;2.73;;
6013;SDS011;3035;49.928;8.410;2023-08-24T14:32:52;8.83;;;2.93;;
6013;SDS011;3035;49.928;8.410;2023-08-24T14:35:21;5.77;;;2.57;;
6013;SDS011;3035;49.928;8.410;2023-08-24T14:37:49;4.40;;;2.83;;
6013;SDS011;3035;49.928;8.410;2023-08-24T14:40:17;5.60;;;2.53;;
6013;SDS011;3035;49.928;8.410;2023-08-24T14:42:45;7.03;;;3.13;;
6013;SDS011;3035;49.928;8.410;2023-08-24T14:45:13;5.87;;;3.03;;
6013;SDS011;3035;49.928;8.410;2023-08-24T14:47:42;4.37;;;2.90;;
6013;SDS011;3035;49.928;8.410;2023-08-24T14:50:11;5.97;;;3.00;;
6013;SDS011;3035;49.928;8.410;2023-08-24T14:52:39;4.83;;;2.60;;
6013;SDS011;3035;49.928;8.410;2023-08-24T14:55:08;7.97;;;2.77;;
6013;SDS011;3035;49.928;8.410;2023-08-24T14:57:37;8.13;;;2.83;;
6013;SDS011;3035;49.928;8.410;2023-08-24T15:00:05;6.77;;;3.20;;
6013;SDS011;3035;49.928;8.410;2023-08-24T15:02:34;9.23;;;3.37;;
6013;SDS011;3035;49.928;8.410;2023-08-24T15:05:03;5.97;;;3.10;;
6013;SDS011;3035;49.928;8.410;2023-08-24T15:07:31;9.63;;;3.50;;
6013;SDS011;3035;49.928;8.410;2023-08-24T15:09:59;7.97;;;3.30;;
6013;SDS011;3035;49.928;8.410;2023-08-24T15:12:27;8.77;;;3.73;;
6013;SDS011;3035;49.928;8.410;2023-08-24T15:14:57;14.13;;;4.20;;
6013;SDS011;3035;49.928;8.410;2023-08-24T15:17:25;6.00;;;3.50;;
6013;SDS011;3035;49.928;8.410;2023-08-24T15:19:54;7.37;;;3.50;;
6013;SDS011;3035;49.928;8.410;2023-08-24T15:22:23;5.70;;;3.60;;
6013;SDS011;3035;49.928;8.410;2023-08-24T15:24:51;9.03;;;3.03;;
6013;SDS011;3035;49.928;8.410;2023-08-24T15:27:19;3.93;;;3.00;;
6013;SDS011;3035;49.928;8.410;2023-08-24T15:29:47;6.23;;;3.00;;
6013;SDS011;3035;49.928;8.410;2023-08-24T15:32:15;11.50;;;3.10;;
6013;SDS011;3035;49.928;8.410;2023-08-24T15:34:43;3.83;;;3.17;;